EDDKEDDM

Guest
Details From EDDK - Koln Bonn
To EDDM - Muenchen Franz-Josef Strauss
Flight Number -
Tags generated
Created
Modified
Stats Distance 236 nm / 436 km
Max Altitude 25,000 ft / 7,620 m
Waypoints 4
Social Downloads 9
Likes 0
Share VATSIM

Download

Looking for another format? Having issues loading an existing format? Contact us
Advertisement - Login to hide

Notes

Basic altitude profile: - Ascent Rate: 2000ft/min - Ascent Speed: 250kts - Cruise Altitude: 35000ft - Cruise Speed: 420kts - Descent Rate: 1000ft/min - Descent Speed: 250kts

Route

EDDK FFM TB1 DKB EDDM

ID Type Via Altitude Latitude Longitude Leg Dist Tot Dist Heading (true) Name
O EDDK APT - 0 ft / 0 m 50.86580˚ 7.13890˚ - 0 nm - Koln Bonn
FFM VOR - 21,400 ft / 6,523 m 50.05374˚ 8.63709˚ 75 nm 75 nm 130° / 131° FRANKFURT VORTAC
DKB VOR TB1 (AWY-HI) 25,000 ft / 7,620 m 49.14275˚ 10.23831˚ 82 nm 158 nm 131° / 132° DINKELSBUHL VORTAC
O EDDM APT - 0 ft / 0 m 48.35379˚ 11.78612˚ 77 nm 235 nm 127° / 128° Muenchen Franz-Josef Strauss

Altitude Profile

Advertisement - Login to hide

Weather


0- 5 10 15 20 25 30 35+ Temperature / ° C

Clouds and Precipitation
Forecast for 2018-05-25 00:00 UTC. Updated 4 hours ago

Ground ~20,000 ft ~40,000 ft Winds

EDDK

Details ICAO EDDK (CGN)
Name Koln Bonn
Region Germany - Civil
Timezone Europe/Berlin (UTC+2.0)
Stats Elevation 302 ft / 92 m (AMSL)
Location 50.865801° 7.138903°
Runways 3
Magnetic Variation 1.988° E

METAR

EDDK 250320Z 09004KT 050V140 9999 FEW027 SCT090 BKN230 16/14 Q1017 NOSIG

Decode

TAF

TAF EDDK 242300Z 2500/2606 11005KT CAVOK= TAF LDZD 242325Z 2500/2600 06006KT CAVOK TX27/2512Z TN15/2504Z BECMG 2507/2509 22007KT BECMG 2510/2512 30010KT PROB30 TEMPO 2513/2517 TS FEW030CB BECMG 2518/2520 06006KT

Decode

Departure Runways

ID Width Length Bearing (true) Bearing (mag) Surface Threshold Offset Overrun Length
06 148 ft / 45 m 8,047 ft / 2,453 m 64.33° 62.34° Concrete 0 ft / 0 m 197 ft / 60 m
14L 197 ft / 60 m 12,497 ft / 3,809 m 137.55° 135.56° Asphalt 0 ft / 0 m 197 ft / 60 m
14R 148 ft / 45 m 6,102 ft / 1,860 m 137.54° 135.55° Asphalt 0 ft / 0 m 197 ft / 60 m
24 148 ft / 45 m 8,047 ft / 2,453 m 244.36° 242.37° Concrete 0 ft / 0 m 197 ft / 60 m
32L 148 ft / 45 m 6,102 ft / 1,860 m 317.56° 315.57° Asphalt 0 ft / 0 m 197 ft / 60 m
32R 197 ft / 60 m 12,497 ft / 3,809 m 317.58° 315.59° Asphalt 0 ft / 0 m 197 ft / 60 m

EDDM

Details ICAO EDDM (MUC)
Name Muenchen Franz-Josef Strauss
Region Germany - Civil
Timezone Europe/Berlin (UTC+2.0)
Stats Elevation 1,487 ft / 453 m (AMSL)
Location 48.353786° 11.786117°
Runways 2
Magnetic Variation 3.215° E

METAR

EDDM 250320Z 00000KT 2500 0900S R26R/0800VP2000D R26L/0900V1500U BCFG FEW001 10/10 Q1019 TEMPO 1200

Decode

TAF

TAF EDDM 242300Z 2500/2606 VRB03KT 8000 SCT025 PROB30 TEMPO 2502/2506 0700 FG PROB30 TEMPO 2506/2508 3000 BR BKN005 BECMG 2509/2511 05005KT PROB30 TEMPO 2515/2517 TSRA SCT030CB BECMG 2517/2519 VRB03KT TEMPO 2523/2605 1200 BCFG

Decode

Destination Runways

ID Width Length Bearing (true) Bearing (mag) Surface Threshold Offset Overrun Length
08L 197 ft / 60 m 13,086 ft / 3,989 m 83.38° 80.16° Concrete 0 ft / 0 m 0 ft / 0 m
08R 197 ft / 60 m 13,086 ft / 3,989 m 83.37° 80.15° Concrete 0 ft / 0 m 0 ft / 0 m
26L 197 ft / 60 m 13,086 ft / 3,989 m 263.41° 260.19° Concrete 0 ft / 0 m 0 ft / 0 m
26R 197 ft / 60 m 13,086 ft / 3,989 m 263.42° 260.20° Concrete 0 ft / 0 m 0 ft / 0 m

Approach Navaids

Runway Type Ident Frequency Range Bearing (true) Bearing (mag) Slope Elevation
08L Localiser IMNE 109.50 MHz 18 nm / 33 km 83.42° 80.20° - 1,449 ft / 442 m (AMSL)
08L Glidescope IMNE 109.50 MHz 15 nm / 28 km 83.40° 80.18° 3.00° 1,487 ft / 453 m (AMSL)
08R Localiser IMSE 109.30 MHz 18 nm / 33 km 83.43° 80.21° - 1,470 ft / 448 m (AMSL)
08R Glidescope IMSE 109.30 MHz 10 nm / 19 km 83.39° 80.17° 3.00° 1,487 ft / 453 m (AMSL)
26L Localiser IMSW 108.30 MHz 18 nm / 33 km 263.35° 260.13° - 1,486 ft / 453 m (AMSL)
26L Glidescope IMSW 108.30 MHz 10 nm / 19 km 263.39° 260.17° 3.00° 1,487 ft / 453 m (AMSL)
26R Localiser IMNW 108.70 MHz 18 nm / 33 km 263.38° 260.17° - 1,467 ft / 447 m (AMSL)
26R Glidescope IMNW 108.70 MHz 15 nm / 28 km 263.40° 260.18° 3.00° 1,487 ft / 453 m (AMSL)

Popular Alternatives